sensor_id;sensor_type;location;lat;lon;timestamp;temperature;humidity
56044;DHT22;41912;51.022;3.664;2023-07-13T00:01:26;19.00;95.80
56044;DHT22;41912;51.022;3.664;2023-07-13T00:03:52;19.10;95.80
56044;DHT22;41912;51.022;3.664;2023-07-13T00:06:17;19.00;95.80
56044;DHT22;41912;51.022;3.664;2023-07-13T00:08:45;19.00;95.90
56044;DHT22;41912;51.022;3.664;2023-07-13T00:11:11;18.90;96.00
56044;DHT22;41912;51.022;3.664;2023-07-13T00:13:36;18.90;96.10
56044;DHT22;41912;51.022;3.664;2023-07-13T00:16:05;18.90;96.20
56044;DHT22;41912;51.022;3.664;2023-07-13T00:18:30;18.90;96.20
56044;DHT22;41912;51.022;3.664;2023-07-13T00:20:56;18.90;96.20
56044;DHT22;41912;51.022;3.664;2023-07-13T00:23:33;18.90;96.20
56044;DHT22;41912;51.022;3.664;2023-07-13T00:26:00;18.90;96.30
56044;DHT22;41912;51.022;3.664;2023-07-13T00:28:26;18.90;96.30
56044;DHT22;41912;51.022;3.664;2023-07-13T00:30:51;18.90;96.40
56044;DHT22;41912;51.022;3.664;2023-07-13T00:33:17;18.80;96.50
56044;DHT22;41912;51.022;3.664;2023-07-13T00:35:43;18.80;96.60
56044;DHT22;41912;51.022;3.664;2023-07-13T00:38:09;18.70;96.80
56044;DHT22;41912;51.022;3.664;2023-07-13T00:40:35;18.70;97.00
56044;DHT22;41912;51.022;3.664;2023-07-13T00:43:01;18.60;97.00
56044;DHT22;41912;51.022;3.664;2023-07-13T00:47:53;18.60;97.30
56044;DHT22;41912;51.022;3.664;2023-07-13T00:50:20;18.60;97.30
56044;DHT22;41912;51.022;3.664;2023-07-13T00:52:50;18.60;97.30
56044;DHT22;41912;51.022;3.664;2023-07-13T00:55:17;18.60;97.40
56044;DHT22;41912;51.022;3.664;2023-07-13T00:57:43;18.60;97.50
56044;DHT22;41912;51.022;3.664;2023-07-13T01:00:10;18.60;97.50
56044;DHT22;41912;51.022;3.664;2023-07-13T01:02:42;18.50;97.60
56044;DHT22;41912;51.022;3.664;2023-07-13T01:05:11;18.60;98.00
56044;DHT22;41912;51.022;3.664;2023-07-13T01:07:38;18.50;97.70
56044;DHT22;41912;51.022;3.664;2023-07-13T01:10:04;18.60;97.80
56044;DHT22;41912;51.022;3.664;2023-07-13T01:12:30;18.50;97.80
56044;DHT22;41912;51.022;3.664;2023-07-13T01:15:00;18.50;97.90
56044;DHT22;41912;51.022;3.664;2023-07-13T01:17:28;18.50;98.00
56044;DHT22;41912;51.022;3.664;2023-07-13T01:19:55;18.50;98.10
56044;DHT22;41912;51.022;3.664;2023-07-13T01:22:20;18.50;98.10
56044;DHT22;41912;51.022;3.664;2023-07-13T01:24:52;18.50;98.20
56044;DHT22;41912;51.022;3.664;2023-07-13T01:27:22;18.40;98.20
56044;DHT22;41912;51.022;3.664;2023-07-13T01:29:50;18.40;98.20
56044;DHT22;41912;51.022;3.664;2023-07-13T01:32:21;18.40;98.20
56044;DHT22;41912;51.022;3.664;2023-07-13T01:34:49;18.40;98.20
56044;DHT22;41912;51.022;3.664;2023-07-13T01:37:15;18.40;98.20
56044;DHT22;41912;51.022;3.664;2023-07-13T01:39:40;18.50;98.20
56044;DHT22;41912;51.022;3.664;2023-07-13T01:42:06;18.50;98.10
56044;DHT22;41912;51.022;3.664;2023-07-13T01:44:32;18.40;98.20
56044;DHT22;41912;51.022;3.664;2023-07-13T01:46:58;18.30;98.40
56044;DHT22;41912;51.022;3.664;2023-07-13T01:49:23;18.30;98.50
56044;DHT22;41912;51.022;3.664;2023-07-13T01:51:49;18.30;98.50
56044;DHT22;41912;51.022;3.664;2023-07-13T01:54:14;18.30;98.50
56044;DHT22;41912;51.022;3.664;2023-07-13T01:56:40;18.20;98.60
56044;DHT22;41912;51.022;3.664;2023-07-13T01:59:07;18.10;98.90
56044;DHT22;41912;51.022;3.664;2023-07-13T02:01:33;18.10;99.00
56044;DHT22;41912;51.022;3.664;2023-07-13T02:03:59;18.10;99.00
56044;DHT22;41912;51.022;3.664;2023-07-13T02:06:24;18.00;99.20
56044;DHT22;41912;51.022;3.664;2023-07-13T02:08:50;18.00;99.30
56044;DHT22;41912;51.022;3.664;2023-07-13T02:11:15;18.00;99.40
56044;DHT22;41912;51.022;3.664;2023-07-13T02:13:41;18.00;99.50
56044;DHT22;41912;51.022;3.664;2023-07-13T02:16:07;18.00;99.50
56044;DHT22;41912;51.022;3.664;2023-07-13T02:18:32;18.00;99.70
56044;DHT22;41912;51.022;3.664;2023-07-13T02:20:58;18.00;99.80
56044;DHT22;41912;51.022;3.664;2023-07-13T02:23:23;18.00;99.90
56044;DHT22;41912;51.022;3.664;2023-07-13T02:25:53;18.00;99.90
56044;DHT22;41912;51.022;3.664;2023-07-13T02:28:19;18.00;99.90
56044;DHT22;41912;51.022;3.664;2023-07-13T02:30:45;18.00;99.90
56044;DHT22;41912;51.022;3.664;2023-07-13T02:33:10;17.90;99.90
56044;DHT22;41912;51.022;3.664;2023-07-13T02:35:36;17.90;99.90
56044;DHT22;41912;51.022;3.664;2023-07-13T02:38:01;17.90;99.90
56044;DHT22;41912;51.022;3.664;2023-07-13T02:40:27;17.90;99.90
56044;DHT22;41912;51.022;3.664;2023-07-13T02:42:53;17.90;99.90
56044;DHT22;41912;51.022;3.664;2023-07-13T02:45:18;17.90;99.90
56044;DHT22;41912;51.022;3.664;2023-07-13T02:47:44;17.80;99.90
56044;DHT22;41912;51.022;3.664;2023-07-13T02:50:09;17.90;99.90
56044;DHT22;41912;51.022;3.664;2023-07-13T02:52:35;17.90;99.90
56044;DHT22;41912;51.022;3.664;2023-07-13T02:55:01;17.80;99.90
56044;DHT22;41912;51.022;3.664;2023-07-13T02:57:26;17.70;99.90
56044;DHT22;41912;51.022;3.664;2023-07-13T02:59:53;17.70;99.90
56044;DHT22;41912;51.022;3.664;2023-07-13T03:02:19;17.80;99.90
56044;DHT22;41912;51.022;3.664;2023-07-13T03:04:44;17.70;99.90
56044;DHT22;41912;51.022;3.664;2023-07-13T03:07:10;17.70;99.90
56044;DHT22;41912;51.022;3.664;2023-07-13T03:09:36;17.70;99.90
56044;DHT22;41912;51.022;3.664;2023-07-13T03:12:02;17.70;99.90
56044;DHT22;41912;51.022;3.664;2023-07-13T03:14:27;17.70;99.90
56044;DHT22;41912;51.022;3.664;2023-07-13T03:16:53;17.70;99.90
56044;DHT22;41912;51.022;3.664;2023-07-13T03:19:19;17.70;99.90
56044;DHT22;41912;51.022;3.664;2023-07-13T03:21:45;17.70;99.90
56044;DHT22;41912;51.022;3.664;2023-07-13T03:24:10;17.80;99.90
56044;DHT22;41912;51.022;3.664;2023-07-13T03:26:36;17.80;99.90
56044;DHT22;41912;51.022;3.664;2023-07-13T03:29:02;17.80;99.90
56044;DHT22;41912;51.022;3.664;2023-07-13T03:31:29;17.80;99.90
56044;DHT22;41912;51.022;3.664;2023-07-13T03:33:56;17.80;99.90
56044;DHT22;41912;51.022;3.664;2023-07-13T03:36:25;17.80;99.90
56044;DHT22;41912;51.022;3.664;2023-07-13T03:38:56;17.90;99.90
56044;DHT22;41912;51.022;3.664;2023-07-13T03:41:23;17.80;99.90
56044;DHT22;41912;51.022;3.664;2023-07-13T03:43:49;17.90;99.90
56044;DHT22;41912;51.022;3.664;2023-07-13T03:46:15;17.90;99.90
56044;DHT22;41912;51.022;3.664;2023-07-13T03:48:43;17.90;99.90
56044;DHT22;41912;51.022;3.664;2023-07-13T03:51:10;17.90;99.90
56044;DHT22;41912;51.022;3.664;2023-07-13T03:53:39;17.90;99.90
56044;DHT22;41912;51.022;3.664;2023-07-13T03:56:05;17.90;99.90
56044;DHT22;41912;51.022;3.664;2023-07-13T03:58:31;17.80;99.90
56044;DHT22;41912;51.022;3.664;2023-07-13T04:00:58;17.80;99.90
56044;DHT22;41912;51.022;3.664;2023-07-13T04:03:24;17.80;99.90
56044;DHT22;41912;51.022;3.664;2023-07-13T04:05:50;17.80;99.90
56044;DHT22;41912;51.022;3.664;2023-07-13T04:08:16;17.90;99.90
56044;DHT22;41912;51.022;3.664;2023-07-13T04:10:42;17.90;99.90
56044;DHT22;41912;51.022;3.664;2023-07-13T04:13:08;17.90;99.90
56044;DHT22;41912;51.022;3.664;2023-07-13T04:15:34;17.90;99.90
56044;DHT22;41912;51.022;3.664;2023-07-13T04:17:59;17.90;99.90
56044;DHT22;41912;51.022;3.664;2023-07-13T04:20:25;17.90;99.90
56044;DHT22;41912;51.022;3.664;2023-07-13T04:22:52;17.90;99.90
56044;DHT22;41912;51.022;3.664;2023-07-13T04:25:19;17.90;99.90
56044;DHT22;41912;51.022;3.664;2023-07-13T04:27:44;17.90;99.90
56044;DHT22;41912;51.022;3.664;2023-07-13T04:30:10;17.90;99.90
56044;DHT22;41912;51.022;3.664;2023-07-13T04:32:36;18.00;99.90
56044;DHT22;41912;51.022;3.664;2023-07-13T04:35:01;18.00;99.90
56044;DHT22;41912;51.022;3.664;2023-07-13T04:37:27;18.00;99.90
56044;DHT22;41912;51.022;3.664;2023-07-13T04:39:53;18.10;99.90
56044;DHT22;41912;51.022;3.664;2023-07-13T04:42:19;18.10;99.90
56044;DHT22;41912;51.022;3.664;2023-07-13T04:44:49;18.10;99.90
56044;DHT22;41912;51.022;3.664;2023-07-13T04:47:14;18.10;99.90
56044;DHT22;41912;51.022;3.664;2023-07-13T04:49:40;18.10;99.90
56044;DHT22;41912;51.022;3.664;2023-07-13T04:52:06;18.10;99.90
56044;DHT22;41912;51.022;3.664;2023-07-13T04:54:33;18.10;99.90
56044;DHT22;41912;51.022;3.664;2023-07-13T04:56:59;18.10;99.90
56044;DHT22;41912;51.022;3.664;2023-07-13T04:59:25;18.20;99.90
56044;DHT22;41912;51.022;3.664;2023-07-13T05:01:50;18.20;99.90
56044;DHT22;41912;51.022;3.664;2023-07-13T05:04:16;18.20;99.90
56044;DHT22;41912;51.022;3.664;2023-07-13T05:06:42;18.20;99.90
56044;DHT22;41912;51.022;3.664;2023-07-13T05:09:08;18.30;99.90
56044;DHT22;41912;51.022;3.664;2023-07-13T05:11:33;18.30;99.90
56044;DHT22;41912;51.022;3.664;2023-07-13T05:13:59;18.30;99.90
56044;DHT22;41912;51.022;3.664;2023-07-13T05:16:27;18.30;99.90
56044;DHT22;41912;51.022;3.664;2023-07-13T05:18:53;18.40;99.90
56044;DHT22;41912;51.022;3.664;2023-07-13T05:21:18;18.40;99.90
56044;DHT22;41912;51.022;3.664;2023-07-13T05:23:44;18.40;99.90
56044;DHT22;41912;51.022;3.664;2023-07-13T05:26:10;18.50;99.90
56044;DHT22;41912;51.022;3.664;2023-07-13T05:28:37;18.50;99.90
56044;DHT22;41912;51.022;3.664;2023-07-13T05:31:03;18.50;99.90
56044;DHT22;41912;51.022;3.664;2023-07-13T05:33:29;18.50;99.90
56044;DHT22;41912;51.022;3.664;2023-07-13T05:35:55;18.50;99.90
56044;DHT22;41912;51.022;3.664;2023-07-13T05:38:21;18.50;99.90
56044;DHT22;41912;51.022;3.664;2023-07-13T05:40:47;18.50;99.90
56044;DHT22;41912;51.022;3.664;2023-07-13T05:43:13;18.50;99.90
56044;DHT22;41912;51.022;3.664;2023-07-13T05:45:39;18.60;99.90
56044;DHT22;41912;51.022;3.664;2023-07-13T05:48:05;18.60;99.90
56044;DHT22;41912;51.022;3.664;2023-07-13T05:50:30;18.60;99.90
56044;DHT22;41912;51.022;3.664;2023-07-13T05:52:57;18.70;99.90
56044;DHT22;41912;51.022;3.664;2023-07-13T05:55:23;18.70;99.90
56044;DHT22;41912;51.022;3.664;2023-07-13T05:57:48;18.80;99.90
56044;DHT22;41912;51.022;3.664;2023-07-13T06:00:14;18.80;99.90
56044;DHT22;41912;51.022;3.664;2023-07-13T06:02:40;18.80;99.90
56044;DHT22;41912;51.022;3.664;2023-07-13T06:05:06;18.90;99.90
56044;DHT22;41912;51.022;3.664;2023-07-13T06:07:32;18.90;99.90
56044;DHT22;41912;51.022;3.664;2023-07-13T06:09:58;18.90;99.90
56044;DHT22;41912;51.022;3.664;2023-07-13T06:12:25;19.00;99.90
56044;DHT22;41912;51.022;3.664;2023-07-13T06:14:50;19.00;99.90
56044;DHT22;41912;51.022;3.664;2023-07-13T06:17:16;19.00;99.90
56044;DHT22;41912;51.022;3.664;2023-07-13T06:19:42;19.10;99.90
56044;DHT22;41912;51.022;3.664;2023-07-13T06:22:07;19.10;99.90
56044;DHT22;41912;51.022;3.664;2023-07-13T06:24:33;19.10;99.90
56044;DHT22;41912;51.022;3.664;2023-07-13T06:26:59;19.20;99.90
56044;DHT22;41912;51.022;3.664;2023-07-13T06:29:24;19.20;99.90
56044;DHT22;41912;51.022;3.664;2023-07-13T06:31:50;19.20;99.90
56044;DHT22;41912;51.022;3.664;2023-07-13T06:34:16;19.20;99.90
56044;DHT22;41912;51.022;3.664;2023-07-13T06:36:41;19.20;99.90
56044;DHT22;41912;51.022;3.664;2023-07-13T06:39:07;19.30;99.90
56044;DHT22;41912;51.022;3.664;2023-07-13T06:41:33;19.30;99.90
56044;DHT22;41912;51.022;3.664;2023-07-13T06:43:59;19.40;99.90
56044;DHT22;41912;51.022;3.664;2023-07-13T06:46:25;19.50;99.90
56044;DHT22;41912;51.022;3.664;2023-07-13T06:48:51;19.50;99.90
56044;DHT22;41912;51.022;3.664;2023-07-13T06:51:17;19.60;99.90
56044;DHT22;41912;51.022;3.664;2023-07-13T06:53:42;19.60;99.90
56044;DHT22;41912;51.022;3.664;2023-07-13T06:56:10;19.60;99.90
56044;DHT22;41912;51.022;3.664;2023-07-13T06:58:36;19.70;99.90
56044;DHT22;41912;51.022;3.664;2023-07-13T07:01:03;19.70;99.90
56044;DHT22;41912;51.022;3.664;2023-07-13T07:03:28;19.70;99.90
56044;DHT22;41912;51.022;3.664;2023-07-13T07:05:59;19.80;99.90
56044;DHT22;41912;51.022;3.664;2023-07-13T07:08:25;19.80;99.90
56044;DHT22;41912;51.022;3.664;2023-07-13T07:10:50;19.90;99.90
56044;DHT22;41912;51.022;3.664;2023-07-13T07:13:19;19.90;99.90
56044;DHT22;41912;51.022;3.664;2023-07-13T07:15:45;20.00;99.90
56044;DHT22;41912;51.022;3.664;2023-07-13T07:18:10;20.00;99.90
56044;DHT22;41912;51.022;3.664;2023-07-13T07:20:36;20.10;99.90
56044;DHT22;41912;51.022;3.664;2023-07-13T07:23:02;20.10;99.90
56044;DHT22;41912;51.022;3.664;2023-07-13T07:25:27;20.20;99.90
56044;DHT22;41912;51.022;3.664;2023-07-13T07:27:57;20.20;99.90
56044;DHT22;41912;51.022;3.664;2023-07-13T07:30:24;20.30;99.90
56044;DHT22;41912;51.022;3.664;2023-07-13T07:32:50;20.30;99.90
56044;DHT22;41912;51.022;3.664;2023-07-13T07:35:15;20.30;99.90
56044;DHT22;41912;51.022;3.664;2023-07-13T07:37:41;20.40;99.90
56044;DHT22;41912;51.022;3.664;2023-07-13T07:40:08;20.40;99.50
56044;DHT22;41912;51.022;3.664;2023-07-13T07:42:34;20.50;99.30
56044;DHT22;41912;51.022;3.664;2023-07-13T07:44:59;20.50;99.20
56044;DHT22;41912;51.022;3.664;2023-07-13T07:47:26;20.50;98.90
56044;DHT22;41912;51.022;3.664;2023-07-13T07:49:52;20.50;99.20
56044;DHT22;41912;51.022;3.664;2023-07-13T07:52:18;20.60;99.30
56044;DHT22;41912;51.022;3.664;2023-07-13T07:54:44;20.60;99.00
56044;DHT22;41912;51.022;3.664;2023-07-13T07:57:09;20.60;99.10
56044;DHT22;41912;51.022;3.664;2023-07-13T07:59:36;20.60;99.00
56044;DHT22;41912;51.022;3.664;2023-07-13T08:02:03;20.70;99.20
56044;DHT22;41912;51.022;3.664;2023-07-13T08:04:28;20.70;99.10
56044;DHT22;41912;51.022;3.664;2023-07-13T08:06:54;20.80;98.70
56044;DHT22;41912;51.022;3.664;2023-07-13T08:09:21;20.80;98.90
56044;DHT22;41912;51.022;3.664;2023-07-13T08:11:47;20.90;98.40
56044;DHT22;41912;51.022;3.664;2023-07-13T08:14:13;21.00;98.30
56044;DHT22;41912;51.022;3.664;2023-07-13T08:16:39;21.00;98.50
56044;DHT22;41912;51.022;3.664;2023-07-13T08:19:05;21.10;98.00
56044;DHT22;41912;51.022;3.664;2023-07-13T08:21:31;21.10;97.70
56044;DHT22;41912;51.022;3.664;2023-07-13T08:23:57;21.10;97.30
56044;DHT22;41912;51.022;3.664;2023-07-13T08:26:23;21.10;97.10
56044;DHT22;41912;51.022;3.664;2023-07-13T08:28:48;21.20;97.50
56044;DHT22;41912;51.022;3.664;2023-07-13T08:31:14;21.20;98.10
56044;DHT22;41912;51.022;3.664;2023-07-13T08:33:40;21.30;97.70
56044;DHT22;41912;51.022;3.664;2023-07-13T08:36:06;21.30;97.50
56044;DHT22;41912;51.022;3.664;2023-07-13T08:38:33;21.40;97.20
56044;DHT22;41912;51.022;3.664;2023-07-13T08:40:58;21.40;97.20
56044;DHT22;41912;51.022;3.664;2023-07-13T08:43:35;21.40;96.90
56044;DHT22;41912;51.022;3.664;2023-07-13T08:46:19;21.40;96.60
56044;DHT22;41912;51.022;3.664;2023-07-13T08:48:50;21.40;96.10
56044;DHT22;41912;51.022;3.664;2023-07-13T08:54:05;21.40;95.90
56044;DHT22;41912;51.022;3.664;2023-07-13T08:56:34;21.40;95.10
56044;DHT22;41912;51.022;3.664;2023-07-13T08:59:21;21.40;95.30
56044;DHT22;41912;51.022;3.664;2023-07-13T09:04:26;21.60;95.30
56044;DHT22;41912;51.022;3.664;2023-07-13T09:07:09;21.70;95.40
56044;DHT22;41912;51.022;3.664;2023-07-13T09:12:51;21.90;93.90
56044;DHT22;41912;51.022;3.664;2023-07-13T09:15:32;21.90;93.50
56044;DHT22;41912;51.022;3.664;2023-07-13T09:18:47;22.00;93.60
56044;DHT22;41912;51.022;3.664;2023-07-13T09:21:02;22.10;93.80
56044;DHT22;41912;51.022;3.664;2023-07-13T09:23:30;22.20;93.70
56044;DHT22;41912;51.022;3.664;2023-07-13T09:26:20;22.30;94.20
56044;DHT22;41912;51.022;3.664;2023-07-13T09:28:49;22.40;93.70
56044;DHT22;41912;51.022;3.664;2023-07-13T09:31:34;22.40;93.20
56044;DHT22;41912;51.022;3.664;2023-07-13T09:34:03;22.40;93.20
56044;DHT22;41912;51.022;3.664;2023-07-13T09:36:33;22.40;92.70
56044;DHT22;41912;51.022;3.664;2023-07-13T09:41:51;22.50;93.10
56044;DHT22;41912;51.022;3.664;2023-07-13T09:44:28;22.60;93.10
56044;DHT22;41912;51.022;3.664;2023-07-13T09:46:57;22.70;93.20
56044;DHT22;41912;51.022;3.664;2023-07-13T09:49:27;22.70;93.20
56044;DHT22;41912;51.022;3.664;2023-07-13T09:52:03;22.80;92.90
56044;DHT22;41912;51.022;3.664;2023-07-13T09:54:33;22.90;92.90
56044;DHT22;41912;51.022;3.664;2023-07-13T09:56:59;22.90;92.10
56044;DHT22;41912;51.022;3.664;2023-07-13T09:59:35;22.90;92.50
56044;DHT22;41912;51.022;3.664;2023-07-13T10:02:02;23.00;92.40
56044;DHT22;41912;51.022;3.664;2023-07-13T10:04:34;23.00;91.20
56044;DHT22;41912;51.022;3.664;2023-07-13T10:07:11;23.10;92.40
56044;DHT22;41912;51.022;3.664;2023-07-13T10:09:38;23.10;92.60
56044;DHT22;41912;51.022;3.664;2023-07-13T10:12:13;23.20;91.50
56044;DHT22;41912;51.022;3.664;2023-07-13T10:14:41;23.20;91.60
56044;DHT22;41912;51.022;3.664;2023-07-13T10:17:12;23.30;91.90
56044;DHT22;41912;51.022;3.664;2023-07-13T10:19:38;23.40;91.50
56044;DHT22;41912;51.022;3.664;2023-07-13T10:25:15;23.50;90.70
56044;DHT22;41912;51.022;3.664;2023-07-13T10:27:41;23.60;90.30
56044;DHT22;41912;51.022;3.664;2023-07-13T10:30:23;23.70;90.00
56044;DHT22;41912;51.022;3.664;2023-07-13T10:32:51;23.80;90.40
56044;DHT22;41912;51.022;3.664;2023-07-13T10:35:20;23.80;90.00
56044;DHT22;41912;51.022;3.664;2023-07-13T10:38:03;23.70;89.60
56044;DHT22;41912;51.022;3.664;2023-07-13T10:43:19;23.80;89.30
56044;DHT22;41912;51.022;3.664;2023-07-13T10:45:47;23.80;88.60
56044;DHT22;41912;51.022;3.664;2023-07-13T10:48:18;23.70;89.30
56044;DHT22;41912;51.022;3.664;2023-07-13T10:50:46;23.30;90.90
56044;DHT22;41912;51.022;3.664;2023-07-13T10:53:37;23.10;92.80
56044;DHT22;41912;51.022;3.664;2023-07-13T10:58:41;22.70;95.60
56044;DHT22;41912;51.022;3.664;2023-07-13T11:01:17;22.40;95.70
56044;DHT22;41912;51.022;3.664;2023-07-13T11:08:58;21.70;97.70
56044;DHT22;41912;51.022;3.664;2023-07-13T11:24:52;21.50;98.70
56044;DHT22;41912;51.022;3.664;2023-07-13T11:27:42;21.40;99.00
56044;DHT22;41912;51.022;3.664;2023-07-13T11:33:23;21.50;99.00
56044;DHT22;41912;51.022;3.664;2023-07-13T11:36:14;21.60;99.10
56044;DHT22;41912;51.022;3.664;2023-07-13T11:38:42;21.70;99.80
56044;DHT22;41912;51.022;3.664;2023-07-13T11:41:17;21.80;99.50
56044;DHT22;41912;51.022;3.664;2023-07-13T11:43:44;21.90;99.90
56044;DHT22;41912;51.022;3.664;2023-07-13T11:46:36;22.00;99.90
56044;DHT22;41912;51.022;3.664;2023-07-13T11:49:05;22.20;99.90
56044;DHT22;41912;51.022;3.664;2023-07-13T11:51:33;22.20;99.50
56044;DHT22;41912;51.022;3.664;2023-07-13T11:54:05;22.30;99.00
56044;DHT22;41912;51.022;3.664;2023-07-13T11:56:33;22.50;99.10
56044;DHT22;41912;51.022;3.664;2023-07-13T11:59:04;22.50;99.20
56044;DHT22;41912;51.022;3.664;2023-07-13T12:01:32;22.60;98.50
56044;DHT22;41912;51.022;3.664;2023-07-13T12:04:01;22.70;98.10
56044;DHT22;41912;51.022;3.664;2023-07-13T12:06:30;22.80;98.80
56044;DHT22;41912;51.022;3.664;2023-07-13T12:08:58;22.80;98.80
56044;DHT22;41912;51.022;3.664;2023-07-13T12:11:25;22.90;98.20
56044;DHT22;41912;51.022;3.664;2023-07-13T12:13:51;23.00;97.90
56044;DHT22;41912;51.022;3.664;2023-07-13T12:16:24;23.00;97.70
56044;DHT22;41912;51.022;3.664;2023-07-13T12:18:53;23.00;97.10
56044;DHT22;41912;51.022;3.664;2023-07-13T12:21:19;23.10;96.20
56044;DHT22;41912;51.022;3.664;2023-07-13T12:23:48;23.10;97.10
56044;DHT22;41912;51.022;3.664;2023-07-13T12:26:15;23.10;97.20
56044;DHT22;41912;51.022;3.664;2023-07-13T12:28:53;23.20;96.80
56044;DHT22;41912;51.022;3.664;2023-07-13T12:31:37;23.40;97.20
56044;DHT22;41912;51.022;3.664;2023-07-13T12:34:21;23.60;97.10
56044;DHT22;41912;51.022;3.664;2023-07-13T12:36:58;23.60;95.40
56044;DHT22;41912;51.022;3.664;2023-07-13T12:39:36;23.60;95.00
56044;DHT22;41912;51.022;3.664;2023-07-13T12:44:58;23.60;95.60
56044;DHT22;41912;51.022;3.664;2023-07-13T12:47:25;23.50;96.30
56044;DHT22;41912;51.022;3.664;2023-07-13T12:49:55;23.50;95.70
56044;DHT22;41912;51.022;3.664;2023-07-13T12:52:29;23.50;96.40
56044;DHT22;41912;51.022;3.664;2023-07-13T12:55:12;23.60;96.00
56044;DHT22;41912;51.022;3.664;2023-07-13T12:57:46;23.60;95.30
56044;DHT22;41912;51.022;3.664;2023-07-13T13:00:23;23.60;95.50
56044;DHT22;41912;51.022;3.664;2023-07-13T13:02:51;23.60;95.10
56044;DHT22;41912;51.022;3.664;2023-07-13T13:05:17;23.70;94.30
56044;DHT22;41912;51.022;3.664;2023-07-13T13:07:43;23.70;93.10
56044;DHT22;41912;51.022;3.664;2023-07-13T13:10:12;23.80;91.60
56044;DHT22;41912;51.022;3.664;2023-07-13T13:12:39;23.70;92.10
56044;DHT22;41912;51.022;3.664;2023-07-13T13:15:08;23.70;92.10
56044;DHT22;41912;51.022;3.664;2023-07-13T13:17:34;23.80;92.00
56044;DHT22;41912;51.022;3.664;2023-07-13T13:20:00;23.90;91.00
56044;DHT22;41912;51.022;3.664;2023-07-13T13:22:26;24.00;90.40
56044;DHT22;41912;51.022;3.664;2023-07-13T13:24:52;24.20;90.60
56044;DHT22;41912;51.022;3.664;2023-07-13T13:27:19;24.30;90.30
56044;DHT22;41912;51.022;3.664;2023-07-13T13:29:46;24.40;89.50
56044;DHT22;41912;51.022;3.664;2023-07-13T13:32:13;24.60;86.60
56044;DHT22;41912;51.022;3.664;2023-07-13T13:34:39;24.60;85.30
56044;DHT22;41912;51.022;3.664;2023-07-13T13:37:17;24.70;85.00
56044;DHT22;41912;51.022;3.664;2023-07-13T13:39:44;24.70;84.70
56044;DHT22;41912;51.022;3.664;2023-07-13T13:42:10;24.80;87.50
56044;DHT22;41912;51.022;3.664;2023-07-13T13:44:36;24.80;87.20
56044;DHT22;41912;51.022;3.664;2023-07-13T13:47:02;24.90;84.90
56044;DHT22;41912;51.022;3.664;2023-07-13T13:49:30;25.00;86.00
56044;DHT22;41912;51.022;3.664;2023-07-13T13:51:56;25.00;84.90
56044;DHT22;41912;51.022;3.664;2023-07-13T13:54:24;24.90;81.60
56044;DHT22;41912;51.022;3.664;2023-07-13T13:56:52;24.90;81.90
56044;DHT22;41912;51.022;3.664;2023-07-13T13:59:18;24.80;79.80
56044;DHT22;41912;51.022;3.664;2023-07-13T14:01:45;24.80;79.30
56044;DHT22;41912;51.022;3.664;2023-07-13T14:04:16;24.90;80.80
56044;DHT22;41912;51.022;3.664;2023-07-13T14:06:43;24.90;83.10
56044;DHT22;41912;51.022;3.664;2023-07-13T14:09:12;24.80;81.30
56044;DHT22;41912;51.022;3.664;2023-07-13T14:11:39;24.80;82.30
56044;DHT22;41912;51.022;3.664;2023-07-13T14:14:16;24.90;82.20
56044;DHT22;41912;51.022;3.664;2023-07-13T14:16:44;25.00;79.60
56044;DHT22;41912;51.022;3.664;2023-07-13T14:19:13;25.10;80.60
56044;DHT22;41912;51.022;3.664;2023-07-13T14:21:40;25.20;77.40
56044;DHT22;41912;51.022;3.664;2023-07-13T14:24:06;25.20;78.50
56044;DHT22;41912;51.022;3.664;2023-07-13T14:26:37;25.20;81.50
56044;DHT22;41912;51.022;3.664;2023-07-13T14:29:08;25.20;79.40
56044;DHT22;41912;51.022;3.664;2023-07-13T14:31:36;25.30;77.30
56044;DHT22;41912;51.022;3.664;2023-07-13T14:34:01;25.40;79.00
56044;DHT22;41912;51.022;3.664;2023-07-13T14:36:38;25.50;79.20
56044;DHT22;41912;51.022;3.664;2023-07-13T14:39:19;25.60;78.20
56044;DHT22;41912;51.022;3.664;2023-07-13T14:41:45;25.70;76.60
56044;DHT22;41912;51.022;3.664;2023-07-13T14:44:16;25.80;78.40
56044;DHT22;41912;51.022;3.664;2023-07-13T14:46:43;25.90;76.70
56044;DHT22;41912;51.022;3.664;2023-07-13T14:51:40;26.00;75.00
56044;DHT22;41912;51.022;3.664;2023-07-13T14:54:08;26.00;75.60
56044;DHT22;41912;51.022;3.664;2023-07-13T14:56:34;26.00;75.20
56044;DHT22;41912;51.022;3.664;2023-07-13T14:59:00;25.80;75.40
56044;DHT22;41912;51.022;3.664;2023-07-13T15:01:26;25.80;75.10
56044;DHT22;41912;51.022;3.664;2023-07-13T15:03:52;25.70;74.80
56044;DHT22;41912;51.022;3.664;2023-07-13T15:06:18;25.70;75.10
56044;DHT22;41912;51.022;3.664;2023-07-13T15:08:45;25.70;76.40
56044;DHT22;41912;51.022;3.664;2023-07-13T15:11:13;25.60;76.90
56044;DHT22;41912;51.022;3.664;2023-07-13T15:13:40;25.50;74.90
56044;DHT22;41912;51.022;3.664;2023-07-13T15:16:24;25.40;74.70
56044;DHT22;41912;51.022;3.664;2023-07-13T15:18:51;25.50;74.30
56044;DHT22;41912;51.022;3.664;2023-07-13T15:21:21;25.60;73.70
56044;DHT22;41912;51.022;3.664;2023-07-13T15:23:47;25.60;73.20
56044;DHT22;41912;51.022;3.664;2023-07-13T15:26:15;25.60;73.10
56044;DHT22;41912;51.022;3.664;2023-07-13T15:28:42;25.70;73.40
56044;DHT22;41912;51.022;3.664;2023-07-13T15:31:28;25.70;75.10
56044;DHT22;41912;51.022;3.664;2023-07-13T15:33:57;25.80;72.20
56044;DHT22;41912;51.022;3.664;2023-07-13T15:36:24;25.90;71.60
56044;DHT22;41912;51.022;3.664;2023-07-13T15:38:52;26.00;72.80
56044;DHT22;41912;51.022;3.664;2023-07-13T15:43:46;26.10;70.40
56044;DHT22;41912;51.022;3.664;2023-07-13T15:46:11;26.10;71.50
56044;DHT22;41912;51.022;3.664;2023-07-13T15:48:37;25.90;71.10
56044;DHT22;41912;51.022;3.664;2023-07-13T15:51:04;25.90;71.80
56044;DHT22;41912;51.022;3.664;2023-07-13T15:53:32;25.80;71.40
56044;DHT22;41912;51.022;3.664;2023-07-13T15:55:58;25.80;72.90
56044;DHT22;41912;51.022;3.664;2023-07-13T15:58:24;25.70;72.80
56044;DHT22;41912;51.022;3.664;2023-07-13T16:00:52;25.70;72.40
56044;DHT22;41912;51.022;3.664;2023-07-13T16:03:19;25.80;73.40
56044;DHT22;41912;51.022;3.664;2023-07-13T16:05:45;25.90;72.80
56044;DHT22;41912;51.022;3.664;2023-07-13T16:08:33;25.90;70.90
56044;DHT22;41912;51.022;3.664;2023-07-13T16:11:02;26.00;73.00
56044;DHT22;41912;51.022;3.664;2023-07-13T16:13:27;25.90;70.30
56044;DHT22;41912;51.022;3.664;2023-07-13T16:15:54;26.00;69.80
56044;DHT22;41912;51.022;3.664;2023-07-13T16:18:21;26.00;71.00
56044;DHT22;41912;51.022;3.664;2023-07-13T16:20:48;26.00;70.50
56044;DHT22;41912;51.022;3.664;2023-07-13T16:23:16;26.00;71.10
56044;DHT22;41912;51.022;3.664;2023-07-13T16:25:42;26.10;73.80
56044;DHT22;41912;51.022;3.664;2023-07-13T16:28:10;26.10;74.10